Time;durP1;ratioP1;P1;durP2;ratioP2;P2;SDS_P1;SDS_P2;PMS_P1;PMS_P2;Temp;Humidity;BMP_temperature;BMP_pressure;BME280_temperature;BME280_humidity;BME280_pressure;Samples;Min_cycle;Max_cycle;Signal;HPM_P1;HPM_P2
2021/12/24 00:03:14;;;;;;;26.63;19.27;;;3.70;99.90;;;;;;5114329;28;20161;-76
2021/12/24 00:05:40;;;;;;;23.90;18.50;;;3.70;99.90;;;;;;5096523;28;20271;-76
2021/12/24 00:08:07;;;;;;;24.53;17.90;;;3.70;99.90;;;;;;5095296;28;20196;-76
2021/12/24 00:10:33;;;;;;;24.00;19.07;;;3.70;99.90;;;;;;5095635;28;20176;-76
2021/12/24 00:13:07;;;;;;;25.47;19.27;;;3.70;99.90;;;;;;5113658;28;20188;-76
2021/12/24 00:21:50;;;;;;;27.33;20.00;;;3.90;99.90;;;;;;5114078;28;20152;-76
2021/12/24 00:35:10;;;;;;;30.40;19.63;;;4.00;99.90;;;;;;5114178;28;20646;-77
2021/12/24 00:37:37;;;;;;;28.17;19.73;;;4.10;99.90;;;;;;5096350;28;20197;-77
2021/12/24 00:42:59;;;;;;;27.63;19.10;;;4.10;99.90;;;;;;5100121;28;20187;-76
2021/12/24 00:45:31;;;;;;;29.57;19.20;;;4.10;99.90;;;;;;5113413;28;20180;-76
2021/12/24 00:48:00;;;;;;;24.73;19.17;;;4.10;99.90;;;;;;5113401;28;20184;-76
2021/12/24 00:50:45;;;;;;;22.67;17.83;;;4.10;99.90;;;;;;5095141;28;20641;-76
2021/12/24 00:55:02;;;;;;;25.87;19.23;;;4.10;99.90;;;;;;5095099;28;20216;-76
2021/12/24 00:55:56;;;;;;;24.57;18.90;;;4.10;99.90;;;;;;5113113;28;20172;-76
2021/12/24 00:58:21;;;;;;;25.87;19.07;;;4.20;99.90;;;;;;5095314;28;20199;-76
2021/12/24 01:00:47;;;;;;;23.80;18.23;;;4.20;99.90;;;;;;5095128;28;20306;-76
2021/12/24 01:03:13;;;;;;;26.13;18.90;;;4.20;99.90;;;;;;5098548;28;20211;-76
2021/12/24 01:05:39;;;;;;;25.97;17.60;;;4.20;99.90;;;;;;5116926;28;20172;-76
2021/12/24 01:08:06;;;;;;;22.00;17.27;;;4.30;99.90;;;;;;5116788;28;20195;-76
2021/12/24 01:10:35;;;;;;;20.80;16.87;;;4.30;99.90;;;;;;5116959;28;20222;-76
2021/12/24 01:13:03;;;;;;;20.17;17.20;;;4.30;99.90;;;;;;5098605;28;20199;-76
2021/12/24 01:15:29;;;;;;;24.20;17.23;;;4.30;99.90;;;;;;5098858;28;20175;-76
2021/12/24 01:18:13;;;;;;;24.83;16.23;;;4.30;99.90;;;;;;5098441;28;20224;-77
2021/12/24 01:20:52;;;;;;;21.80;16.13;;;4.30;99.90;;;;;;5099381;28;20244;-77
2021/12/24 01:26:10;;;;;;;21.60;16.50;;;4.40;99.90;;;;;;5117197;28;20160;-77
2021/12/24 01:29:37;;;;;;;23.83;16.23;;;4.40;99.90;;;;;;5116655;28;20184;-77
2021/12/24 01:37:53;;;;;;;22.47;16.83;;;4.40;99.90;;;;;;5117157;28;20171;-76
2021/12/24 01:40:18;;;;;;;21.03;16.37;;;4.60;99.90;;;;;;5117113;28;20213;-76
2021/12/24 01:42:43;;;;;;;20.57;15.80;;;4.50;99.90;;;;;;5116047;28;20187;-77
2021/12/24 01:45:29;;;;;;;20.33;15.27;;;4.50;99.90;;;;;;5116286;28;20176;-77
2021/12/24 01:47:56;;;;;;;20.47;14.53;;;4.60;99.90;;;;;;5098006;28;20204;-76
2021/12/24 01:50:42;;;;;;;21.33;15.47;;;4.50;99.90;;;;;;5116408;28;20184;-76
2021/12/24 01:53:09;;;;;;;21.70;16.73;;;4.50;99.90;;;;;;5116004;28;20263;-76
2021/12/24 01:55:36;;;;;;;18.30;14.73;;;4.50;99.90;;;;;;5116001;28;20703;-76
2021/12/24 01:58:01;;;;;;;18.10;14.70;;;4.50;99.90;;;;;;5098593;28;20196;-76
2021/12/24 02:00:37;;;;;;;20.73;14.93;;;4.50;99.90;;;;;;5097783;28;20172;-76
2021/12/24 02:03:03;;;;;;;18.67;15.40;;;4.60;99.90;;;;;;5098541;28;20239;-76
2021/12/24 02:05:32;;;;;;;17.17;14.17;;;4.70;99.90;;;;;;5097696;28;20204;-76
2021/12/24 02:07:59;;;;;;;19.03;14.27;;;4.70;99.90;;;;;;5097687;28;20207;-76
2021/12/24 02:10:25;;;;;;;18.73;14.17;;;4.60;99.90;;;;;;5116170;28;20634;-76
2021/12/24 02:12:51;;;;;;;15.93;13.73;;;4.60;99.90;;;;;;5097241;28;20196;-76
2021/12/24 02:15:41;;;;;;;16.43;13.83;;;4.70;99.90;;;;;;5097322;28;20689;-76
2021/12/24 02:28:48;;;;;;;17.13;12.63;;;4.80;99.90;;;;;;5115482;28;20203;-76
2021/12/24 02:31:19;;;;;;;14.13;12.17;;;4.80;99.90;;;;;;5097001;28;20172;-76
2021/12/24 02:33:45;;;;;;;14.10;11.90;;;4.80;99.90;;;;;;5097980;28;20167;-76
2021/12/24 02:36:12;;;;;;;13.87;11.40;;;4.90;99.90;;;;;;5115280;28;20174;-76
2021/12/24 02:38:38;;;;;;;14.23;12.73;;;5.00;99.90;;;;;;5097092;28;20192;-76
2021/12/24 02:41:05;;;;;;;14.03;11.07;;;5.00;99.90;;;;;;5096958;28;20192;-76
2021/12/24 02:43:32;;;;;;;12.37;10.77;;;5.10;99.90;;;;;;5096855;28;20267;-76
2021/12/24 02:46:07;;;;;;;13.40;11.43;;;5.20;99.90;;;;;;5097225;28;20191;-76
2021/12/24 02:54:01;;;;;;;13.47;11.10;;;5.20;99.90;;;;;;5115464;28;20194;-76
2021/12/24 02:56:33;;;;;;;13.43;11.00;;;5.20;99.90;;;;;;5115049;28;20161;-76
2021/12/24 02:59:00;;;;;;;11.57;10.37;;;5.20;99.90;;;;;;5096552;28;20196;-76
2021/12/24 03:01:31;;;;;;;13.37;11.00;;;5.30;99.90;;;;;;5097380;28;20233;-76
2021/12/24 03:03:57;;;;;;;12.37;10.50;;;5.20;99.90;;;;;;5097370;28;20171;-76
2021/12/24 03:06:27;;;;;;;13.60;10.43;;;5.30;99.90;;;;;;5096535;28;20188;-76
2021/12/24 03:08:53;;;;;;;13.07;10.87;;;5.40;99.90;;;;;;5096194;28;20216;-76
2021/12/24 03:11:19;;;;;;;11.80;10.57;;;5.30;99.90;;;;;;5096285;28;20668;-76
2021/12/24 03:13:45;;;;;;;10.87;9.63;;;5.30;99.90;;;;;;5096923;28;20187;-76
2021/12/24 03:16:11;;;;;;;14.80;11.10;;;5.30;99.90;;;;;;5096295;28;20267;-76
2021/12/24 03:18:39;;;;;;;13.70;10.63;;;5.30;99.90;;;;;;5096911;28;20287;-76
2021/12/24 03:21:30;;;;;;;14.30;10.57;;;5.30;99.90;;;;;;5096550;28;20272;-76
2021/12/24 03:26:49;;;;;;;11.60;10.13;;;5.30;99.90;;;;;;5114002;28;20175;-76
2021/12/24 03:29:16;;;;;;;13.67;11.07;;;5.30;99.90;;;;;;5114251;28;20171;-76
2021/12/24 03:31:42;;;;;;;18.63;15.97;;;5.30;99.90;;;;;;5095966;28;20249;-76
2021/12/24 03:34:12;;;;;;;91.10;59.87;;;5.30;99.90;;;;;;5095966;28;20211;-76
2021/12/24 03:36:38;;;;;;;49.53;35.77;;;5.30;99.90;;;;;;5095990;28;20176;-76
2021/12/24 03:39:08;;;;;;;24.53;20.07;;;5.40;99.90;;;;;;5096167;28;20202;-76
2021/12/24 03:41:34;;;;;;;21.37;16.30;;;5.40;99.90;;;;;;5095934;28;20244;-76
2021/12/24 03:43:59;;;;;;;19.93;15.57;;;5.40;99.90;;;;;;5096311;28;20262;-76
2021/12/24 03:46:35;;;;;;;19.23;16.33;;;5.40;99.90;;;;;;5096946;28;20214;-76
2021/12/24 03:49:06;;;;;;;23.07;16.77;;;5.40;99.90;;;;;;5114262;28;20200;-76
2021/12/24 03:56:42;;;;;;;20.60;16.37;;;5.50;99.90;;;;;;5114373;28;20160;-76
2021/12/24 03:59:08;;;;;;;18.50;15.80;;;5.50;99.90;;;;;;5096038;28;20192;-76
2021/12/24 04:01:35;;;;;;;23.17;17.70;;;5.60;99.90;;;;;;5095664;28;20184;-76
2021/12/24 04:04:00;;;;;;;20.53;16.90;;;5.50;99.90;;;;;;5095956;28;20191;-76
2021/12/24 04:06:26;;;;;;;23.10;17.40;;;5.60;99.90;;;;;;5096010;28;20175;-76
2021/12/24 04:08:52;;;;;;;22.47;17.03;;;5.60;99.90;;;;;;5095499;28;20223;-76
2021/12/24 04:11:18;;;;;;;22.53;17.13;;;5.70;99.90;;;;;;5113983;28;20179;-76
2021/12/24 04:13:44;;;;;;;26.10;17.37;;;5.70;99.90;;;;;;5095586;28;20178;-76
2021/12/24 04:16:10;;;;;;;21.37;17.30;;;5.80;99.90;;;;;;5095572;28;20172;-76
2021/12/24 04:18:45;;;;;;;22.80;17.80;;;5.80;99.90;;;;;;5096408;28;20196;-76
2021/12/24 04:26:39;;;;;;;21.00;15.60;;;5.90;99.90;;;;;;5114305;28;20167;-77
2021/12/24 04:29:06;;;;;;;20.23;15.83;;;5.90;99.90;;;;;;5095318;28;20192;-77
2021/12/24 04:31:43;;;;;;;21.73;16.20;;;5.90;99.90;;;;;;5096167;28;20172;-77
2021/12/24 04:34:10;;;;;;;22.47;16.13;;;5.90;99.90;;;;;;5096309;28;20160;-77
2021/12/24 04:36:55;;;;;;;20.33;16.03;;;6.00;99.90;;;;;;5096669;28;20168;-77
2021/12/24 04:51:06;;;;;;;22.87;15.40;;;6.00;99.90;;;;;;5118097;28;20218;-77
2021/12/24 05:01:14;;;;;;;19.80;16.17;;;6.00;99.90;;;;;;5117513;28;20249;-77
2021/12/24 05:01:51;;;;;;;19.00;14.03;;;6.00;99.90;;;;;;5117318;28;20228;-77
2021/12/24 05:04:25;;;;;;;19.87;14.90;;;6.00;99.90;;;;;;5098881;28;20195;-77
2021/12/24 05:06:57;;;;;;;16.43;14.10;;;6.00;99.90;;;;;;5099591;28;20176;-77
2021/12/24 05:09:24;;;;;;;19.93;13.70;;;6.00;99.90;;;;;;5098979;28;20187;-77
2021/12/24 05:11:50;;;;;;;19.30;14.03;;;6.00;99.90;;;;;;5098933;28;20689;-77
2021/12/24 05:14:16;;;;;;;17.40;14.03;;;6.00;99.90;;;;;;5098700;28;20172;-77
2021/12/24 05:16:48;;;;;;;15.00;13.10;;;6.10;99.90;;;;;;5098766;28;20180;-77
2021/12/24 05:21:54;;;;;;;13.37;11.97;;;6.10;99.90;;;;;;5117016;28;20153;-77
2021/12/24 05:24:22;;;;;;;15.60;11.27;;;6.10;99.90;;;;;;5098774;28;20177;-77
2021/12/24 05:27:00;;;;;;;12.37;10.50;;;6.20;99.90;;;;;;5098319;28;20180;-76
2021/12/24 05:29:26;;;;;;;14.67;10.20;;;6.20;99.90;;;;;;5098429;28;20168;-76
2021/12/24 05:31:52;;;;;;;11.87;10.27;;;6.20;99.90;;;;;;5098276;28;20211;-76
2021/12/24 05:34:18;;;;;;;12.10;9.63;;;6.20;99.90;;;;;;5098202;28;20176;-76
2021/12/24 05:36:45;;;;;;;12.37;10.53;;;6.20;99.90;;;;;;5116716;28;20168;-76
2021/12/24 05:39:11;;;;;;;11.80;9.57;;;6.20;99.90;;;;;;5098342;28;20199;-76
2021/12/24 05:41:39;;;;;;;11.60;10.20;;;6.20;99.90;;;;;;5098939;28;20176;-76
2021/12/24 05:44:06;;;;;;;10.93;9.00;;;6.20;99.90;;;;;;5116263;28;20172;-76
2021/12/24 05:46:31;;;;;;;12.37;9.17;;;6.30;99.90;;;;;;5098001;28;20662;-76
2021/12/24 05:48:57;;;;;;;10.80;8.20;;;6.30;99.90;;;;;;5097227;28;20197;-76
2021/12/24 05:51:22;;;;;;;11.23;8.23;;;6.40;99.90;;;;;;5116135;28;20183;-76
2021/12/24 05:53:48;;;;;;;11.33;8.80;;;6.40;99.90;;;;;;5097951;28;20183;-76
2021/12/24 05:56:29;;;;;;;10.80;8.53;;;6.40;99.90;;;;;;5116061;28;20169;-76
2021/12/24 05:58:55;;;;;;;9.23;7.83;;;6.40;99.90;;;;;;5097843;28;20196;-76
2021/12/24 06:01:21;;;;;;;7.83;7.03;;;6.30;99.90;;;;;;5098624;28;20175;-76
2021/12/24 06:03:47;;;;;;;9.00;7.80;;;6.40;99.90;;;;;;5097706;28;20180;-76
2021/12/24 06:06:13;;;;;;;9.77;7.30;;;6.50;99.90;;;;;;5115849;28;20627;-76
2021/12/24 06:08:39;;;;;;;9.30;7.73;;;6.40;99.90;;;;;;5097471;28;20219;-76
2021/12/24 06:11:05;;;;;;;11.40;8.07;;;6.40;99.90;;;;;;5116613;28;20180;-76
2021/12/24 06:13:32;;;;;;;8.60;7.10;;;6.40;99.90;;;;;;5098270;28;20199;-76
2021/12/24 06:15:57;;;;;;;10.27;7.87;;;6.40;99.90;;;;;;5097553;28;20178;-76
2021/12/24 06:18:28;;;;;;;8.50;7.47;;;6.40;99.90;;;;;;5115684;28;20212;-76
2021/12/24 06:20:55;;;;;;;8.33;7.47;;;6.40;99.90;;;;;;5115540;28;20670;-76
2021/12/24 06:23:23;;;;;;;8.53;7.13;;;6.40;99.90;;;;;;5097294;28;20180;-76
2021/12/24 06:25:51;;;;;;;8.10;7.30;;;6.40;99.90;;;;;;5097322;28;20180;-76
2021/12/24 06:28:17;;;;;;;9.60;7.83;;;6.40;99.90;;;;;;5115449;28;20637;-76
2021/12/24 06:30:42;;;;;;;11.17;8.43;;;6.40;99.90;;;;;;5097223;28;20207;-76
2021/12/24 06:33:09;;;;;;;11.20;10.00;;;6.40;99.90;;;;;;5098002;28;20223;-76
2021/12/24 06:35:35;;;;;;;9.17;8.23;;;6.50;99.90;;;;;;5097047;28;20293;-76
2021/12/24 06:38:01;;;;;;;8.73;7.87;;;6.50;99.90;;;;;;5096941;28;20223;-77
2021/12/24 06:40:27;;;;;;;9.70;8.70;;;6.50;99.90;;;;;;5097059;28;20180;-77
2021/12/24 06:42:53;;;;;;;9.63;7.83;;;6.50;99.90;;;;;;5115125;28;20177;-77
2021/12/24 06:45:23;;;;;;;8.43;7.03;;;6.50;99.90;;;;;;5096892;28;20176;-77
2021/12/24 06:47:49;;;;;;;9.20;7.67;;;6.50;99.90;;;;;;5096671;28;20552;-77
2021/12/24 06:50:15;;;;;;;8.83;7.87;;;6.50;99.90;;;;;;5096786;28;20183;-77
2021/12/24 06:52:41;;;;;;;9.37;8.37;;;6.50;99.90;;;;;;5097447;28;20231;-77
2021/12/24 06:55:07;;;;;;;16.07;14.10;;;6.50;99.90;;;;;;5097813;28;20172;-77
2021/12/24 06:57:33;;;;;;;14.70;13.20;;;6.50;99.90;;;;;;5096942;28;20203;-77
2021/12/24 06:59:58;;;;;;;18.47;16.60;;;6.50;99.90;;;;;;5096456;28;20180;-77
2021/12/24 07:02:24;;;;;;;13.23;11.03;;;6.50;99.90;;;;;;5096554;28;20278;-77
2021/12/24 07:04:49;;;;;;;10.00;9.00;;;6.50;99.90;;;;;;5115313;28;20180;-77
2021/12/24 07:07:15;;;;;;;9.67;8.00;;;6.50;99.90;;;;;;5097213;28;20294;-77
2021/12/24 07:09:43;;;;;;;11.27;9.97;;;6.50;99.90;;;;;;5097433;28;20199;-77
2021/12/24 07:12:11;;;;;;;10.07;9.07;;;6.40;99.90;;;;;;5114519;28;20287;-76
2021/12/24 07:14:38;;;;;;;7.80;7.10;;;6.40;99.90;;;;;;5113853;28;20233;-76
2021/12/24 07:17:04;;;;;;;10.37;8.53;;;6.40;99.90;;;;;;5096216;28;20200;-77
2021/12/24 07:19:29;;;;;;;12.30;11.07;;;6.40;99.90;;;;;;5113360;28;20183;-77
2021/12/24 07:21:55;;;;;;;20.27;16.17;;;6.40;99.90;;;;;;5096461;28;20233;-76
2021/12/24 07:24:20;;;;;;;23.93;17.30;;;6.40;99.90;;;;;;5096517;28;20554;-76
2021/12/24 07:26:46;;;;;;;15.67;11.90;;;6.40;99.90;;;;;;5096237;28;20184;-77
2021/12/24 07:29:12;;;;;;;12.50;11.20;;;6.40;99.90;;;;;;5096845;28;20207;-77
2021/12/24 07:31:37;;;;;;;11.13;9.93;;;6.30;99.90;;;;;;5096046;28;20184;-77
2021/12/24 07:34:03;;;;;;;12.87;10.27;;;6.40;99.90;;;;;;5096157;28;20207;-77
2021/12/24 07:36:29;;;;;;;15.67;12.33;;;6.40;99.90;;;;;;5095997;28;20180;-77
2021/12/24 07:38:54;;;;;;;14.10;12.33;;;6.40;99.90;;;;;;5095933;28;20202;-77
2021/12/24 07:41:20;;;;;;;11.67;9.50;;;6.50;99.90;;;;;;5096851;28;20180;-77
2021/12/24 07:43:46;;;;;;;12.53;8.57;;;6.50;99.90;;;;;;5095747;28;20184;-77
2021/12/24 07:46:12;;;;;;;8.13;7.33;;;6.40;99.90;;;;;;5095968;28;20188;-77
2021/12/24 07:48:45;;;;;;;22.87;19.33;;;6.40;99.90;;;;;;5095852;28;20196;-77
2021/12/24 07:54:00;;;;;;;8.63;7.80;;;6.40;99.90;;;;;;5114345;28;20213;-76
2021/12/24 07:56:30;;;;;;;7.37;6.63;;;6.40;99.90;;;;;;5096983;28;20168;-76
2021/12/24 07:58:56;;;;;;;6.83;6.23;;;6.40;99.90;;;;;;5096288;28;20223;-76
2021/12/24 08:01:27;;;;;;;7.93;6.00;;;6.50;99.90;;;;;;5096496;28;20183;-76
2021/12/24 08:03:54;;;;;;;6.97;6.30;;;6.50;99.90;;;;;;5095664;28;20262;-76
2021/12/24 08:06:23;;;;;;;7.50;6.03;;;6.50;99.90;;;;;;5095594;28;20180;-76
2021/12/24 08:08:48;;;;;;;22.90;20.53;;;6.50;99.90;;;;;;5095740;28;20215;-76
2021/12/24 08:11:14;;;;;;;10.30;9.13;;;6.40;99.90;;;;;;5096045;28;20205;-76
2021/12/24 08:13:39;;;;;;;7.10;6.40;;;6.40;99.90;;;;;;5100083;28;20208;-76
2021/12/24 08:16:05;;;;;;;10.73;9.63;;;6.40;99.90;;;;;;5099825;28;20180;-76
2021/12/24 08:18:31;;;;;;;14.70;13.20;;;6.40;99.90;;;;;;5099986;28;20200;-76
2021/12/24 08:20:56;;;;;;;25.67;20.43;;;6.40;99.90;;;;;;5117982;28;20172;-77
2021/12/24 08:23:22;;;;;;;14.57;12.67;;;6.40;99.90;;;;;;5117858;28;20541;-76
2021/12/24 08:25:47;;;;;;;17.47;12.17;;;6.40;99.90;;;;;;5117772;28;20229;-76
2021/12/24 08:28:13;;;;;;;14.40;10.93;;;6.40;99.90;;;;;;5099496;28;20196;-76
2021/12/24 08:30:39;;;;;;;29.47;23.57;;;6.40;99.90;;;;;;5117716;28;20218;-76
2021/12/24 08:33:05;;;;;;;9.57;8.43;;;6.40;99.90;;;;;;5099336;28;20204;-76
2021/12/24 08:35:30;;;;;;;11.07;8.67;;;6.40;99.90;;;;;;5117684;28;20587;-77
2021/12/24 08:37:56;;;;;;;9.67;8.33;;;6.50;99.90;;;;;;5099945;28;20196;-76
2021/12/24 08:40:21;;;;;;;10.07;7.87;;;6.50;99.90;;;;;;5099352;28;20240;-77
2021/12/24 08:42:47;;;;;;;8.33;7.40;;;6.50;99.90;;;;;;5117527;28;20180;-77
2021/12/24 08:45:13;;;;;;;7.30;6.27;;;6.50;99.90;;;;;;5099208;28;20188;-76
2021/12/24 08:47:40;;;;;;;8.13;6.07;;;6.50;99.90;;;;;;5117364;28;20203;-76
2021/12/24 08:50:09;;;;;;;7.87;5.87;;;6.50;99.90;;;;;;5099908;28;20180;-76
2021/12/24 08:52:34;;;;;;;6.03;4.90;;;6.60;99.90;;;;;;5117213;28;20196;-82
2021/12/24 08:55:00;;;;;;;8.43;5.50;;;6.60;99.90;;;;;;5098978;28;20183;-76
2021/12/24 08:57:25;;;;;;;6.77;5.50;;;6.60;99.90;;;;;;5117241;28;20200;-76
2021/12/24 08:59:51;;;;;;;8.80;6.83;;;6.60;99.90;;;;;;5117521;28;20176;-78
2021/12/24 09:02:17;;;;;;;6.67;6.07;;;6.60;99.90;;;;;;5098864;28;20631;-78
2021/12/24 09:04:43;;;;;;;6.10;5.30;;;6.60;99.90;;;;;;5099671;28;20519;-78
2021/12/24 09:07:08;;;;;;;8.27;5.90;;;6.60;99.90;;;;;;5098864;28;20202;-76
2021/12/24 09:09:38;;;;;;;9.07;5.30;;;6.60;99.90;;;;;;5116781;28;20196;-77
2021/12/24 09:12:05;;;;;;;7.70;5.23;;;6.60;99.90;;;;;;5099707;28;20207;-77
2021/12/24 09:14:30;;;;;;;7.83;5.80;;;6.60;99.90;;;;;;5116795;28;20181;-77
2021/12/24 09:17:00;;;;;;;15.57;11.70;;;6.60;99.90;;;;;;5098649;28;20183;-77
2021/12/24 09:19:28;;;;;;;9.67;6.13;;;6.70;99.90;;;;;;5116867;28;20245;-76
2021/12/24 09:22:04;;;;;;;19.70;15.90;;;6.70;99.90;;;;;;5098604;28;20172;-77
2021/12/24 09:25:04;;;;;;;18.10;10.70;;;6.70;99.90;;;;;;5117001;28;20163;-77
2021/12/24 09:27:31;;;;;;;7.70;4.93;;;6.70;99.90;;;;;;5120294;28;20196;-77
2021/12/24 09:29:56;;;;;;;7.90;5.50;;;6.70;99.90;;;;;;5100621;28;20172;-77
2021/12/24 09:32:29;;;;;;;7.77;5.50;;;6.70;99.90;;;;;;5099995;28;20207;-77
2021/12/24 09:35:04;;;;;;;7.30;5.93;;;6.70;99.90;;;;;;5118266;28;20160;-77
2021/12/24 09:37:30;;;;;;;6.77;5.10;;;6.80;99.90;;;;;;5099599;28;20286;-77
2021/12/24 09:39:55;;;;;;;6.57;5.07;;;6.80;99.90;;;;;;5098379;28;20699;-77
2021/12/24 09:42:24;;;;;;;13.03;5.97;;;6.80;99.90;;;;;;5116654;28;20245;-77
2021/12/24 09:44:52;;;;;;;10.40;5.70;;;6.80;99.90;;;;;;5098274;28;20262;-77
2021/12/24 09:47:18;;;;;;;6.80;5.33;;;6.80;99.90;;;;;;5098769;28;20215;-76
2021/12/24 09:49:44;;;;;;;7.50;5.10;;;6.90;99.90;;;;;;5098064;28;20267;-77
2021/12/24 09:52:11;;;;;;;5.83;4.90;;;6.90;99.90;;;;;;5098017;28;20290;-77
2021/12/24 09:54:43;;;;;;;6.90;4.67;;;6.90;99.90;;;;;;5097917;28;20176;-77
2021/12/24 09:57:24;;;;;;;7.97;5.00;;;6.90;99.90;;;;;;5098788;28;20200;-77
2021/12/24 09:59:49;;;;;;;5.83;5.23;;;7.00;99.90;;;;;;5098767;28;20156;-77
2021/12/24 10:02:17;;;;;;;5.97;4.73;;;7.00;99.90;;;;;;5098202;28;20168;-77
2021/12/24 10:04:44;;;;;;;5.87;4.57;;;7.00;99.90;;;;;;5097741;28;20267;-77
2021/12/24 10:07:16;;;;;;;6.93;5.47;;;7.00;99.90;;;;;;5097913;28;20719;-77
2021/12/24 10:09:49;;;;;;;7.77;5.47;;;7.00;99.90;;;;;;5097406;28;20222;-77
2021/12/24 10:12:24;;;;;;;8.97;6.13;;;7.00;99.90;;;;;;5097408;28;20211;-77
2021/12/24 10:14:57;;;;;;;9.40;6.10;;;7.00;99.90;;;;;;5097548;28;20179;-77
2021/12/24 10:17:25;;;;;;;8.70;5.93;;;7.00;99.90;;;;;;5097459;28;20198;-77
2021/12/24 10:19:54;;;;;;;6.97;5.87;;;7.10;99.90;;;;;;5097805;28;20177;-77
2021/12/24 10:22:21;;;;;;;8.63;6.23;;;7.10;99.90;;;;;;5097773;28;20172;-77
2021/12/24 10:25:07;;;;;;;8.27;6.43;;;7.10;99.90;;;;;;5097379;28;20271;-77
2021/12/24 10:27:35;;;;;;;7.23;5.33;;;7.10;99.90;;;;;;5097392;28;20678;-77
2021/12/24 10:30:13;;;;;;;6.20;5.27;;;7.20;99.90;;;;;;5098019;28;20180;-77
2021/12/24 10:36:02;;;;;;;7.60;5.63;;;7.30;99.90;;;;;;5115096;28;20210;-77
2021/12/24 10:38:28;;;;;;;9.00;6.20;;;7.20;99.90;;;;;;5097083;28;20199;-80
2021/12/24 10:40:59;;;;;;;7.93;5.90;;;7.20;99.90;;;;;;5097340;28;20176;-76
2021/12/24 10:43:34;;;;;;;6.97;5.57;;;7.30;99.90;;;;;;5097161;28;20164;-76
2021/12/24 10:46:18;;;;;;;6.85;5.25;;;7.30;99.90;;;;;;5115812;28;20262;-77
2021/12/24 10:49:24;;;;;;;9.10;5.50;;;7.30;99.90;;;;;;5097411;28;20199;-77
2021/12/24 10:52:11;;;;;;;6.30;4.77;;;7.30;99.90;;;;;;5097811;28;20203;-77
2021/12/24 10:55:13;;;;;;;7.40;5.00;;;7.40;99.90;;;;;;5115149;28;20152;-77
2021/12/24 10:57:42;;;;;;;7.00;4.90;;;7.40;99.90;;;;;;5096727;28;20198;-77
2021/12/24 11:00:49;;;;;;;7.57;5.47;;;7.40;99.90;;;;;;5096719;28;20267;-77
2021/12/24 11:03:22;;;;;;;8.80;4.75;;;7.40;99.90;;;;;;5113662;28;20205;-77
2021/12/24 11:05:52;;;;;;;6.77;4.90;;;7.40;99.90;;;;;;5115090;28;20162;-77
2021/12/24 11:08:25;;;;;;;7.43;5.43;;;7.40;99.90;;;;;;5096559;28;20204;-80
2021/12/24 11:10:54;;;;;;;7.57;5.33;;;7.40;99.90;;;;;;5097139;28;20206;-77
2021/12/24 11:13:31;;;;;;;7.33;5.10;;;7.50;99.90;;;;;;5096332;28;20273;-77
2021/12/24 11:16:00;;;;;;;8.97;5.50;;;7.50;99.90;;;;;;5096368;28;20254;-78
2021/12/24 11:18:33;;;;;;;7.77;5.30;;;7.50;99.90;;;;;;5096345;28;20196;-77
2021/12/24 11:21:12;;;;;;;8.10;4.80;;;7.50;99.90;;;;;;5096436;28;20177;-77
2021/12/24 11:23:40;;;;;;;7.75;5.15;;;7.50;99.90;;;;;;5096272;28;20214;-77
2021/12/24 11:26:27;;;;;;;8.05;4.63;;;7.50;99.90;;;;;;5113179;28;20246;-77
2021/12/24 11:28:53;;;;;;;11.17;5.10;;;7.50;99.90;;;;;;5096856;28;20200;-77
2021/12/24 11:31:22;;;;;;;9.03;4.90;;;7.60;99.90;;;;;;5096971;28;20575;-77
2021/12/24 11:33:58;;;;;;;7.73;5.93;;;7.60;99.90;;;;;;5097155;28;20207;-77
2021/12/24 11:36:25;;;;;;;8.67;4.90;;;7.60;99.90;;;;;;5097087;28;20221;-77
2021/12/24 11:38:54;;;;;;;12.23;9.70;;;7.70;99.90;;;;;;5096064;28;20203;-77
2021/12/24 11:41:22;;;;;;;13.27;8.30;;;7.80;99.90;;;;;;5096363;28;20176;-77
2021/12/24 11:44:35;;;;;;;13.10;10.63;;;7.80;99.90;;;;;;5114407;28;20190;-77
2021/12/24 11:47:01;;;;;;;15.40;8.63;;;7.70;99.90;;;;;;5094993;28;20249;-77
2021/12/24 11:49:27;;;;;;;8.63;6.57;;;7.80;99.90;;;;;;5095782;28;20185;-77
2021/12/24 11:51:57;;;;;;;7.63;6.80;;;7.80;99.90;;;;;;5096115;28;20226;-77
2021/12/24 11:54:23;;;;;;;11.70;8.90;;;7.80;99.90;;;;;;5095803;28;20170;-77
2021/12/24 11:56:52;;;;;;;12.23;9.47;;;7.80;99.90;;;;;;5095794;28;20181;-77
2021/12/24 12:00:07;;;;;;;9.70;7.47;;;7.80;99.90;;;;;;5096046;28;20294;-77
2021/12/24 12:02:50;;;;;;;10.17;6.90;;;7.80;99.90;;;;;;5113578;28;20168;-77
2021/12/24 12:05:31;;;;;;;9.30;5.88;;;7.90;99.90;;;;;;5095674;28;20201;-77
2021/12/24 12:08:36;;;;;;;7.53;5.80;;;8.00;99.90;;;;;;5095765;28;20206;-77
2021/12/24 12:11:21;;;;;;;11.60;5.05;;;8.00;99.90;;;;;;5082497;28;20215;-77
2021/12/24 12:14:07;;;;;;;5.88;4.88;;;8.10;99.90;;;;;;5095549;28;20208;-77
2021/12/24 12:17:08;;;;;;;7.63;4.63;;;8.00;99.90;;;;;;5114123;28;20197;-77
2021/12/24 12:19:58;;;;;;;7.80;4.85;;;8.00;99.90;;;;;;5095501;28;20163;-77
2021/12/24 12:25:28;;;;;;;10.43;6.57;;;7.90;99.90;;;;;;5113982;28;20156;-77
2021/12/24 12:28:01;;;;;;;7.35;5.03;;;7.90;99.90;;;;;;5096008;28;20200;-76
2021/12/24 12:30:31;;;;;;;7.60;4.97;;;7.80;99.90;;;;;;5095628;28;20631;-77
2021/12/24 12:33:06;;;;;;;8.18;5.05;;;7.70;99.90;;;;;;5096582;28;20207;-77
2021/12/24 12:35:42;;;;;;;7.55;4.38;;;7.70;99.90;;;;;;5095460;28;20545;-77
2021/12/24 12:38:27;;;;;;;9.75;4.53;;;7.70;99.90;;;;;;5096294;28;20192;-77
2021/12/24 12:40:53;;;;;;;9.63;4.55;;;7.70;99.90;;;;;;5113838;28;20172;-78
2021/12/24 12:46:33;;;;;;;7.15;4.10;;;7.70;99.90;;;;;;5113786;28;20199;-78
2021/12/24 12:49:05;;;;;;;7.97;4.25;;;7.70;99.90;;;;;;5095442;28;20192;-78
2021/12/24 12:51:56;;;;;;;5.85;4.05;;;7.70;99.90;;;;;;5096163;28;20257;-78
2021/12/24 12:54:34;;;;;;;8.18;4.90;;;7.70;99.90;;;;;;5095240;28;20276;-78
2021/12/24 12:57:21;;;;;;;7.40;4.20;;;7.70;99.90;;;;;;5113368;28;20263;-77
2021/12/24 13:00:07;;;;;;;8.10;4.38;;;7.70;99.90;;;;;;5117809;28;20651;-77
2021/12/24 13:02:56;;;;;;;7.32;4.05;;;7.70;99.90;;;;;;5100341;28;20175;-77
2021/12/24 13:05:27;;;;;;;5.80;3.75;;;7.70;99.90;;;;;;5091458;28;20298;-78
2021/12/24 13:08:21;;;;;;;8.48;3.90;;;7.60;99.90;;;;;;5117630;28;20192;-77
2021/12/24 13:11:09;;;;;;;5.47;3.72;;;7.60;99.90;;;;;;5098776;28;20188;-78
2021/12/24 13:14:03;;;;;;;56.95;34.65;;;7.60;99.90;;;;;;5098715;28;20256;-77
2021/12/24 13:16:45;;;;;;;13.23;7.70;;;7.60;99.90;;;;;;5098822;28;20165;-78
2021/12/24 13:22:30;;;;;;;6.95;4.50;;;7.70;99.90;;;;;;5117156;28;20157;-78
2021/12/24 13:25:13;;;;;;;7.32;4.05;;;7.70;99.90;;;;;;5099162;28;20171;-77
2021/12/24 13:27:52;;;;;;;7.03;3.67;;;7.70;99.90;;;;;;5116755;28;20184;-77
2021/12/24 13:30:24;;;;;;;6.85;4.57;;;7.60;99.90;;;;;;5116982;28;20156;-77
2021/12/24 13:32:51;;;;;;;9.35;5.00;;;7.60;99.90;;;;;;5098567;28;20287;-77
2021/12/24 13:35:21;;;;;;;9.93;6.70;;;7.70;99.90;;;;;;5098363;28;20175;-77
2021/12/24 13:37:59;;;;;;;14.07;8.93;;;7.60;99.90;;;;;;5098567;28;20278;-78
2021/12/24 13:41:03;;;;;;;8.43;5.00;;;7.60;99.90;;;;;;5098914;28;20183;-76
2021/12/24 13:43:31;;;;;;;6.38;4.25;;;7.60;99.90;;;;;;5116473;28;20164;-77
2021/12/24 13:46:06;;;;;;;11.18;5.25;;;7.60;99.90;;;;;;5098432;28;20180;-77
2021/12/24 13:48:44;;;;;;;5.82;4.13;;;7.60;99.90;;;;;;5098066;28;20195;-81
2021/12/24 13:56:43;;;;;;;10.25;4.90;;;7.60;99.90;;;;;;5115438;28;20164;-77
2021/12/24 13:59:23;;;;;;;7.35;3.88;;;7.60;99.90;;;;;;5115943;28;20192;-77
2021/12/24 14:01:49;;;;;;;9.35;3.78;;;7.60;99.90;;;;;;5097658;28;20208;-77
2021/12/24 14:04:44;;;;;;;5.55;3.53;;;7.60;99.90;;;;;;5116296;28;20207;-77
2021/12/24 14:07:47;;;;;;;8.05;4.97;;;7.60;99.90;;;;;;5098086;28;20308;-77
2021/12/24 14:20:06;;;;;;;5.78;4.18;;;7.70;99.90;;;;;;5115997;28;20161;-77
2021/12/24 14:22:34;;;;;;;8.33;4.63;;;7.60;99.90;;;;;;5097742;28;20182;-82
2021/12/24 14:25:08;;;;;;;6.07;4.22;;;7.60;99.90;;;;;;5097244;28;20184;-77
2021/12/24 14:27:35;;;;;;;11.18;5.85;;;7.50;99.90;;;;;;5097290;28;20222;-77
2021/12/24 14:30:05;;;;;;;6.40;4.03;;;7.40;99.90;;;;;;5115941;28;20172;-77
2021/12/24 14:32:37;;;;;;;5.90;4.22;;;7.40;99.90;;;;;;5097181;28;20211;-78
2021/12/24 14:35:30;;;;;;;6.80;4.10;;;7.40;99.90;;;;;;5097845;28;20168;-77
2021/12/24 14:41:19;;;;;;;8.13;3.90;;;7.40;99.90;;;;;;5115464;28;20187;-78
2021/12/24 14:44:38;;;;;;;5.78;4.53;;;7.30;99.90;;;;;;5115489;28;20177;-77
2021/12/24 14:47:04;;;;;;;15.32;7.20;;;7.30;99.90;;;;;;5042580;28;20188;-77
2021/12/24 14:49:33;;;;;;;18.27;13.48;;;7.30;99.90;;;;;;5099022;28;20187;-77
2021/12/24 14:55:53;;;;;;;5.53;3.53;;;7.30;99.90;;;;;;5115093;28;20182;-78
2021/12/24 14:58:33;;;;;;;7.00;4.07;;;7.30;99.90;;;;;;5097177;28;20204;-77
2021/12/24 15:01:04;;;;;;;9.13;4.70;;;7.20;99.90;;;;;;5115059;28;20163;-77
2021/12/24 15:03:32;;;;;;;9.48;4.50;;;7.30;99.90;;;;;;5097174;28;20171;-77
2021/12/24 15:05:59;;;;;;;8.37;4.20;;;7.20;99.90;;;;;;5096806;28;20267;-77
2021/12/24 15:08:48;;;;;;;9.30;4.50;;;7.20;99.90;;;;;;5096626;28;20196;-77